Time;durP1;ratioP1;P1;durP2;ratioP2;P2;SDS_P1;SDS_P2;PMS_P1;PMS_P2;Temp;Humidity;BMP_temperature;BMP_pressure;BME280_temperature;BME280_humidity;BME280_pressure;Samples;Min_cycle;Max_cycle;Signal;HPM_P1;HPM_P2
2023/03/19 11:48:14;;;;;;;12.25;8.00;;;;;;;11.48;67.44;101304.55;1807376;79;28183;-63
2023/03/19 11:51:41;;;;;;;10.18;7.03;;;;;;;11.50;67.58;101300.61;1780378;79;21275;-62
2023/03/19 11:55:11;;;;;;;15.53;7.80;;;;;;;11.42;67.36;101299.67;1783604;80;21733;-62
2023/03/19 11:58:44;;;;;;;13.95;6.58;;;;;;;11.14;67.24;101302.17;1750710;80;21224;-62
2023/03/19 12:02:22;;;;;;;10.32;6.47;;;;;;;10.95;67.40;101300.45;1731676;83;21237;-61
2023/03/19 12:06:09;;;;;;;9.08;5.65;;;;;;;11.28;67.99;101292.88;1775892;79;22053;-62
2023/03/19 12:09:30;;;;;;;10.72;5.78;;;;;;;11.54;67.85;101291.56;1778093;80;21271;-61
2023/03/19 12:13:00;;;;;;;6.35;5.50;;;;;;;11.49;67.74;101286.56;1779076;80;21169;-62
2023/03/19 12:16:32;;;;;;;9.58;6.12;;;;;;;11.72;67.88;101283.66;1779866;80;21263;-62
2023/03/19 12:20:11;;;;;;;8.48;5.60;;;;;;;11.66;67.48;101291.17;1780417;80;21235;-63
2023/03/19 12:23:24;;;;;;;16.75;8.15;;;;;;;11.24;67.04;101295.58;1781160;80;21208;-62
2023/03/19 12:26:58;;;;;;;13.25;6.80;;;;;;;11.04;67.25;101286.30;1782037;79;21220;-62
2023/03/19 12:30:21;;;;;;;8.75;5.33;;;;;;;11.45;68.10;101286.52;1756044;80;21210;-61
2023/03/19 12:33:57;;;;;;;8.05;5.72;;;;;;;11.69;67.72;101289.97;1768007;80;21334;-61
2023/03/19 12:37:26;;;;;;;10.98;6.00;;;;;;;11.47;67.13;101296.81;1763177;80;21198;-61
2023/03/19 12:40:41;;;;;;;9.33;4.92;;;;;;;10.91;66.71;101279.02;1749882;82;21746;-62
2023/03/19 12:44:00;;;;;;;10.48;5.35;;;;;;;10.89;67.41;101279.67;1750437;82;21221;-61
2023/03/19 12:47:18;;;;;;;7.28;5.53;;;;;;;11.30;68.11;101281.77;1743605;82;21289;-61
2023/03/19 12:50:26;;;;;;;6.83;4.80;;;;;;;11.80;68.07;101271.37;1745666;81;21238;-61
2023/03/19 12:53:51;;;;;;;11.18;5.72;;;;;;;12.14;67.79;101270.02;1729958;82;21206;-62
2023/03/19 12:57:09;;;;;;;7.70;5.65;;;;;;;11.86;66.78;101264.39;1745481;82;21214;-62
2023/03/19 13:00:42;;;;;;;10.00;5.53;;;;;;;11.59;66.66;101259.03;1733274;82;21211;-62
2023/03/19 13:04:16;;;;;;;6.95;5.37;;;;;;;11.35;66.46;101249.26;1745447;82;21795;-62
2023/03/19 13:07:35;;;;;;;6.55;5.62;;;;;;;11.48;66.92;101248.33;1712810;83;21206;-62
2023/03/19 13:10:42;;;;;;;9.15;5.65;;;;;;;11.68;67.05;101246.63;1716376;82;21249;-62
2023/03/19 13:14:03;;;;;;;8.33;5.70;;;;;;;11.49;66.47;101244.55;1735794;82;21214;-62
2023/03/19 13:17:15;;;;;;;6.83;5.22;;;;;;;11.31;66.60;101241.86;1742596;81;21192;-63
2023/03/19 13:20:47;;;;;;;7.80;5.53;;;;;;;11.42;66.95;101237.48;1765937;80;21213;-62
2023/03/19 13:23:56;;;;;;;10.90;6.20;;;;;;;11.64;67.00;101237.48;1772461;81;21518;-63
2023/03/19 13:27:04;;;;;;;8.88;5.58;;;;;;;11.95;67.09;101227.23;1763375;81;21232;-62
2023/03/19 13:30:23;;;;;;;9.25;4.85;;;;;;;12.17;67.01;101223.02;1732479;81;21219;-62
2023/03/19 13:33:33;;;;;;;8.20;4.95;;;;;;;12.43;67.20;101223.78;1766271;81;21233;-63
2023/03/19 13:36:46;;;;;;;8.23;5.62;;;;;;;12.53;66.76;101224.50;1767700;81;21195;-62
2023/03/19 13:39:53;;;;;;;7.78;5.10;;;;;;;12.21;65.91;101228.52;1748087;81;21199;-62
2023/03/19 13:43:06;;;;;;;8.50;4.85;;;;;;;12.01;65.98;101222.95;1756195;80;21748;-62
2023/03/19 13:46:21;;;;;;;;;;;;;;;11.91;65.88;101219.46;1753026;81;21198;-62
2023/03/19 13:49:37;;;;;;;9.68;6.17;;;;;;;11.87;65.69;101212.09;1777018;79;20239;-62
2023/03/19 13:53:00;;;;;;;12.53;6.65;;;;;;;11.96;65.67;101215.72;1747554;81;21761;-63
2023/03/19 13:56:09;;;;;;;;;;;;;;;11.95;65.50;101214.02;1756327;81;21240;-61
2023/03/19 13:59:34;;;;;;;11.48;5.75;;;;;;;11.98;65.53;101203.57;1755792;80;20208;-61
2023/03/19 14:02:50;;;;;;;9.40;6.25;;;;;;;12.10;65.68;101196.41;1760377;81;21197;-63
2023/03/19 14:06:03;;;;;;;15.88;8.78;;;;;;;12.18;65.52;101193.16;1761713;80;21252;-62
2023/03/19 14:09:12;;;;;;;14.93;7.42;;;;;;;12.28;65.63;101189.77;1729077;82;21193;-62
2023/03/19 14:12:28;;;;;;;8.80;5.60;;;;;;;12.46;65.43;101194.64;1719101;82;21583;-63
2023/03/19 14:15:35;;;;;;;11.55;6.42;;;;;;;12.71;65.69;101195.53;1737355;82;21249;-62
2023/03/19 14:18:43;;;;;;;9.45;5.28;;;;;;;12.85;65.09;101191.59;1735566;82;21264;-62
2023/03/19 14:21:54;;;;;;;7.62;5.55;;;;;;;12.78;64.62;101185.59;1729778;82;21197;-61
2023/03/19 14:25:14;;;;;;;12.53;7.40;;;;;;;12.75;64.58;101193.64;1729909;82;21182;-61
2023/03/19 14:28:24;;;;;;;16.50;9.83;;;;;;;12.39;63.67;101185.34;1732784;82;21217;-63
2023/03/19 14:31:48;;;;;;;9.65;6.90;;;;;;;12.18;64.01;101182.19;1755388;81;21227;-61
2023/03/19 14:34:58;;;;;;;11.25;6.83;;;;;;;12.31;64.22;101174.33;1771485;81;21334;-62
2023/03/19 14:38:04;;;;;;;10.40;5.40;;;;;;;12.29;63.88;101175.01;1772443;81;21205;-62
2023/03/19 14:41:10;;;;;;;8.58;5.40;;;;;;;12.55;64.05;101173.52;1735394;82;21212;-62
2023/03/19 14:44:37;;;;;;;10.28;6.45;;;;;;;12.81;63.95;101172.34;1745730;80;21213;-62
2023/03/19 14:48:07;;;;;;;11.78;6.62;;;;;;;12.93;63.78;101175.11;1755902;81;21220;-61
2023/03/19 14:51:58;;;;;;;14.50;7.65;;;;;;;12.73;63.46;101178.36;1737975;82;21260;-62
2023/03/19 14:55:12;;;;;;;10.28;5.78;;;;;;;12.48;63.32;101182.11;1681799;85;21681;-62
2023/03/19 14:58:18;;;;;;;9.35;6.08;;;;;;;12.57;63.29;101182.46;1713980;82;21188;-62
2023/03/19 15:01:25;;;;;;;11.00;6.03;;;;;;;12.60;63.00;101178.00;1760646;80;21212;-62
2023/03/19 15:04:33;;;;;;;11.08;6.10;;;;;;;12.64;62.93;101173.88;1760657;81;21229;-61
2023/03/19 15:07:43;;;;;;;12.23;5.17;;;;;;;12.84;62.43;101173.91;1760253;81;21174;-62
2023/03/19 15:10:55;;;;;;;9.15;5.50;;;;;;;12.61;62.09;101177.83;1760997;81;21201;-61
2023/03/19 15:14:14;;;;;;;10.40;5.60;;;;;;;12.39;62.31;101173.48;1738201;82;21236;-61
2023/03/19 15:17:36;;;;;;;20.50;7.15;;;;;;;12.24;62.56;101174.64;1736703;82;21181;-61
2023/03/19 15:20:55;;;;;;;10.82;6.05;;;;;;;12.38;62.44;101175.90;1736426;82;21352;-62
2023/03/19 15:24:03;;;;;;;7.53;4.70;;;;;;;12.52;62.09;101180.23;1714356;82;21334;-61
2023/03/19 15:27:12;;;;;;;6.90;4.55;;;;;;;12.28;61.86;101183.41;1739894;81;21210;-61
2023/03/19 15:30:32;;;;;;;6.03;5.25;;;;;;;12.12;61.87;101187.47;1718669;82;21240;-61
2023/03/19 15:33:42;;;;;;;;;;;;;;;11.99;61.72;101187.94;1737060;82;21198;-61
2023/03/19 15:36:52;;;;;;;9.08;5.30;;;;;;;11.87;61.61;101183.78;1734244;82;20188;-60
2023/03/19 15:40:01;;;;;;;8.00;4.87;;;;;;;11.64;61.55;101182.63;1735990;82;21317;-62
2023/03/19 15:43:09;;;;;;;10.38;6.25;;;;;;;11.43;61.58;101187.63;1723549;82;21257;-61
2023/03/19 15:46:18;;;;;;;6.90;5.30;;;;;;;11.13;61.50;101192.22;1748842;81;21213;-60
2023/03/19 15:49:44;;;;;;;9.43;6.05;;;;;;;10.81;61.51;101187.33;1713741;84;21239;-62
2023/03/19 15:52:54;;;;;;;16.30;7.10;;;;;;;10.50;61.53;101196.44;1738187;82;21699;-61
2023/03/19 15:56:01;;;;;;;22.02;9.85;;;;;;;10.22;61.65;101200.25;1742104;82;21201;-61
2023/03/19 15:59:07;;;;;;;15.20;8.23;;;;;;;9.98;61.72;101209.98;1771102;81;21248;-61
2023/03/19 16:02:21;;;;;;;16.17;8.20;;;;;;;9.75;61.77;101205.94;1719016;82;21252;-61
2023/03/19 16:05:34;;;;;;;;;;;;;;;9.54;61.81;101210.27;1745062;81;21225;-61
2023/03/19 16:08:42;;;;;;;10.80;6.35;;;;;;;9.34;61.81;101209.11;1712599;83;20230;-61
2023/03/19 16:11:49;;;;;;;9.00;6.80;;;;;;;9.13;61.92;101206.56;1738925;81;21210;-61
2023/03/19 16:14:56;;;;;;;22.15;11.65;;;;;;;8.96;61.99;101210.88;1714119;82;21177;-60
2023/03/19 16:18:02;;;;;;;15.28;10.28;;;;;;;8.80;62.01;101217.95;1761463;81;21185;-60
2023/03/19 16:21:21;;;;;;;11.55;7.08;;;;;;;8.63;62.06;101216.80;1761632;81;21193;-63
2023/03/19 16:24:37;;;;;;;11.43;6.85;;;;;;;8.50;62.06;101220.29;1760669;81;21213;-62
2023/03/19 16:27:46;;;;;;;15.78;6.30;;;;;;;8.33;62.07;101217.39;1745642;81;21367;-61
2023/03/19 16:30:56;;;;;;;20.50;6.08;;;;;;;8.18;62.12;101225.08;1763580;81;21229;-62
2023/03/19 16:34:03;;;;;;;8.98;5.33;;;;;;;8.04;62.17;101226.84;1763975;81;21217;-61
2023/03/19 16:37:09;;;;;;;10.40;6.45;;;;;;;7.92;62.17;101232.05;1763786;81;21237;-62
2023/03/19 16:40:30;;;;;;;22.62;15.03;;;;;;;7.80;62.20;101230.94;1746311;81;21221;-62
2023/03/19 16:43:37;;;;;;;14.78;9.35;;;;;;;7.68;62.26;101232.88;1761398;81;21201;-62
2023/03/19 16:46:43;;;;;;;13.35;8.28;;;;;;;7.55;62.31;101232.23;1746801;81;21185;-62
2023/03/19 16:49:52;;;;;;;13.50;8.70;;;;;;;7.43;62.37;101239.66;1762443;81;21185;-61
2023/03/19 16:52:59;;;;;;;13.90;7.53;;;;;;;7.33;62.38;101237.37;1760178;79;21209;-61
2023/03/19 16:56:07;;;;;;;20.82;11.65;;;;;;;7.23;62.40;101241.04;1764545;81;21296;-62
2023/03/19 16:59:15;;;;;;;33.35;15.32;;;;;;;7.11;62.40;101247.53;1759833;81;21209;-62
2023/03/19 17:02:23;;;;;;;23.65;14.00;;;;;;;7.00;62.41;101251.19;1755142;81;21201;-61
2023/03/19 17:05:30;;;;;;;23.07;14.13;;;;;;;6.90;62.43;101240.72;1766628;80;21209;-61
2023/03/19 17:08:38;;;;;;;16.20;11.10;;;;;;;6.83;62.52;101246.34;1762093;81;21217;-61
2023/03/19 17:11:46;;;;;;;24.92;16.77;;;;;;;6.74;62.57;101248.45;1764781;80;21252;-62
2023/03/19 17:14:54;;;;;;;19.05;13.83;;;;;;;6.67;62.61;101251.84;1730128;81;21248;-61
2023/03/19 17:18:01;;;;;;;19.92;10.18;;;;;;;6.59;62.67;101253.85;1734006;82;21201;-60
2023/03/19 17:21:17;;;;;;;12.30;9.55;;;;;;;6.52;62.67;101244.47;1732385;82;21249;-62
2023/03/19 17:24:29;;;;;;;61.98;38.35;;;;;;;6.45;62.69;101251.44;1729603;82;21177;-63
2023/03/19 17:27:37;;;;;;;31.27;19.10;;;;;;;6.40;62.74;101250.08;1734730;82;21212;-62
2023/03/19 17:30:45;;;;;;;20.43;11.68;;;;;;;6.34;62.76;101252.83;1734522;82;21221;-61
2023/03/19 17:33:51;;;;;;;24.85;10.53;;;;;;;6.30;62.82;101245.90;1740692;82;21448;-64
2023/03/19 17:37:03;;;;;;;14.68;9.18;;;;;;;6.26;62.84;101248.52;1722271;82;21749;-62
2023/03/19 17:40:09;;;;;;;18.02;10.65;;;;;;;6.22;62.89;101247.03;1727186;82;21303;-62
2023/03/19 17:43:18;;;;;;;18.23;11.70;;;;;;;6.16;62.88;101254.83;1723406;82;21272;-62
2023/03/19 17:46:28;;;;;;;23.57;12.23;;;;;;;6.10;62.89;101249.41;1732040;83;21301;-61
2023/03/19 17:49:39;;;;;;;19.60;11.20;;;;;;;6.04;62.91;101254.00;1734096;82;21224;-61
2023/03/19 17:52:46;;;;;;;17.40;11.63;;;;;;;6.00;62.91;101249.79;1728563;80;21238;-62
2023/03/19 17:55:54;;;;;;;18.20;10.28;;;;;;;5.94;62.94;101259.33;1730965;81;21323;-62
2023/03/19 17:59:02;;;;;;;19.75;11.33;;;;;;;5.87;62.97;101256.72;1734249;82;21236;-62
2023/03/19 18:02:09;;;;;;;17.10;10.75;;;;;;;5.80;63.00;101251.89;1736675;82;21770;-61
2023/03/19 18:05:29;;;;;;;15.90;10.75;;;;;;;5.73;63.05;101252.00;1736806;82;21390;-62
2023/03/19 18:08:37;;;;;;;20.43;10.88;;;;;;;5.67;63.10;101253.38;1720751;82;21206;-62
2023/03/19 18:11:43;;;;;;;21.35;11.88;;;;;;;5.61;63.16;101261.98;1731022;82;21229;-62
2023/03/19 18:14:50;;;;;;;23.95;14.43;;;;;;;5.59;63.24;101252.25;1742850;81;21211;-62
2023/03/19 18:18:03;;;;;;;31.65;17.73;;;;;;;5.53;63.29;101248.19;1744624;82;21193;-61
2023/03/19 18:21:10;;;;;;;;;;;;;;;5.50;63.33;101244.85;1743688;82;21205;-62
2023/03/19 18:24:17;;;;;;;56.33;32.75;;;;;;;5.48;63.38;101256.31;1735789;81;20214;-62
2023/03/19 18:27:24;;;;;;;45.65;24.25;;;;;;;5.40;63.38;101248.79;1729857;83;21209;-62
2023/03/19 18:30:30;;;;;;;66.67;30.15;;;;;;;5.37;63.50;101245.45;1727487;83;21221;-62
2023/03/19 18:33:38;;;;;;;69.45;33.13;;;;;;;5.33;63.50;101248.02;1728873;83;21206;-62
2023/03/19 18:36:44;;;;;;;56.53;29.75;;;;;;;5.28;63.49;101246.19;1729299;83;21833;-61
2023/03/19 18:39:52;;;;;;;58.02;28.07;;;;;;;5.23;63.57;101249.23;1712150;83;21351;-61
2023/03/19 18:43:00;;;;;;;38.25;22.02;;;;;;;5.20;63.66;101245.92;1741517;81;21284;-60
2023/03/19 18:46:06;;;;;;;35.05;21.90;;;;;;;5.14;63.64;101243.18;1744087;81;21173;-61
2023/03/19 18:49:26;;;;;;;37.78;19.55;;;;;;;5.07;63.58;101244.66;1735431;82;21604;-62
2023/03/19 18:52:33;;;;;;;36.53;19.70;;;;;;;4.99;63.53;101242.16;1734846;82;21205;-61
2023/03/19 18:55:40;;;;;;;30.92;18.55;;;;;;;4.94;63.63;101249.80;1737253;80;21181;-61
2023/03/19 18:58:46;;;;;;;42.33;24.52;;;;;;;4.90;63.71;101248.31;1764445;80;21747;-61
2023/03/19 19:01:52;;;;;;;92.90;52.05;;;;;;;4.87;63.81;101243.97;1774792;80;21291;-61
2023/03/19 19:04:59;;;;;;;108.40;60.67;;;;;;;4.78;63.71;101250.13;1776815;79;21209;-62
2023/03/19 19:08:09;;;;;;;95.47;53.78;;;;;;;4.73;63.78;101247.37;1776603;80;21548;-61
2023/03/19 19:11:18;;;;;;;146.35;83.70;;;;;;;4.70;63.91;101251.67;1776253;79;21315;-62
2023/03/19 19:14:29;;;;;;;154.42;83.82;;;;;;;4.65;63.91;101247.97;1776285;80;21196;-62
2023/03/19 19:17:36;;;;;;;145.85;74.40;;;;;;;4.63;64.06;101246.37;1775969;80;21197;-61
2023/03/19 19:20:42;;;;;;;95.53;52.98;;;;;;;4.61;64.13;101247.84;1765046;80;21237;-62
2023/03/19 19:23:49;;;;;;;95.90;52.90;;;;;;;4.59;64.17;101249.31;1776929;80;21317;-62
2023/03/19 19:27:00;;;;;;;89.72;49.38;;;;;;;4.58;64.21;101250.28;1765958;80;21784;-62
2023/03/19 19:30:08;;;;;;;65.40;37.03;;;;;;;4.57;64.29;101249.04;1777645;79;21209;-62
2023/03/19 19:33:28;;;;;;;65.22;35.85;;;;;;;4.57;64.38;101239.07;1769761;81;21173;-61
2023/03/19 19:36:33;;;;;;;48.78;28.07;;;;;;;4.60;64.50;101244.73;1766111;80;21209;-61
2023/03/19 19:39:40;;;;;;;35.58;23.47;;;;;;;4.63;64.58;101247.72;1777573;81;21200;-62
2023/03/19 19:42:47;;;;;;;38.90;24.72;;;;;;;4.65;64.60;101249.32;1766105;81;21209;-61
2023/03/19 19:45:55;;;;;;;40.80;23.65;;;;;;;4.66;64.58;101248.84;1777131;79;21188;-61
2023/03/19 19:49:05;;;;;;;34.95;21.12;;;;;;;4.63;64.55;101245.86;1766316;81;21212;-61
2023/03/19 19:52:12;;;;;;;32.40;19.17;;;;;;;4.60;64.58;101249.67;1777517;79;21244;-61
2023/03/19 19:55:19;;;;;;;34.48;17.90;;;;;;;4.56;64.57;101244.13;1748172;79;21217;-61
2023/03/19 19:58:32;;;;;;;29.92;17.75;;;;;;;4.48;64.45;101243.84;1756024;81;21192;-61
2023/03/19 20:01:38;;;;;;;28.42;16.02;;;;;;;4.42;64.49;101242.09;1766444;80;21252;-61
2023/03/19 20:04:45;;;;;;;27.17;16.42;;;;;;;4.38;64.51;101250.05;1766430;81;21710;-61
2023/03/19 20:07:52;;;;;;;32.25;18.77;;;;;;;4.29;64.52;101246.20;1757080;81;21213;-61
2023/03/19 20:10:58;;;;;;;44.53;23.20;;;;;;;4.26;64.59;101242.38;1766762;80;21233;-61
2023/03/19 20:14:04;;;;;;;38.83;21.87;;;;;;;4.21;64.64;101249.11;1766793;81;21177;-64
2023/03/19 20:17:11;;;;;;;41.90;20.97;;;;;;;4.11;64.64;101246.22;1766571;80;21209;-61
2023/03/19 20:20:35;;;;;;;35.52;19.87;;;;;;;4.08;64.82;101245.09;1766604;80;21710;-61
2023/03/19 20:23:40;;;;;;;38.15;17.05;;;;;;;4.09;64.98;101244.61;1769019;81;21225;-62
2023/03/19 20:26:46;;;;;;;32.23;18.50;;;;;;;4.12;65.15;101242.52;1766416;80;21212;-61
2023/03/19 20:29:54;;;;;;;36.08;18.65;;;;;;;4.10;65.14;101240.91;1766507;81;21241;-62
2023/03/19 20:33:00;;;;;;;33.00;18.80;;;;;;;4.10;65.23;101244.50;1766508;81;21177;-62
2023/03/19 20:36:09;;;;;;;30.88;16.55;;;;;;;4.11;65.34;101243.50;1766460;80;21205;-61
2023/03/19 20:39:17;;;;;;;29.42;15.50;;;;;;;4.12;65.38;101239.80;1766632;81;21217;-61
2023/03/19 20:42:24;;;;;;;25.95;15.83;;;;;;;4.10;65.30;101239.08;1766497;81;21800;-61
2023/03/19 20:45:36;;;;;;;37.55;20.68;;;;;;;4.08;65.33;101239.67;1766474;80;21253;-63
2023/03/19 20:48:42;;;;;;;36.80;20.37;;;;;;;4.05;65.37;101240.38;1766830;81;21252;-62
2023/03/19 20:51:48;;;;;;;51.40;26.95;;;;;;;4.04;65.46;101240.86;1766335;80;21201;-62
2023/03/19 20:54:55;;;;;;;29.65;17.20;;;;;;;4.04;65.50;101249.50;1766446;81;21803;-62
2023/03/19 20:58:02;;;;;;;26.25;13.83;;;;;;;4.02;65.55;101246.91;1766452;81;21329;-62
2023/03/19 21:01:09;;;;;;;24.45;13.08;;;;;;;4.01;65.58;101241.60;1766708;80;21200;-62
2023/03/19 21:04:20;;;;;;;27.30;14.20;;;;;;;3.99;65.63;101241.72;1766389;81;21256;-60
2023/03/19 21:07:38;;;;;;;42.10;19.70;;;;;;;3.91;65.53;101244.13;1766672;81;21194;-60
2023/03/19 21:10:49;;;;;;;51.95;26.33;;;;;;;3.85;65.64;101250.00;1766454;80;21279;-61
2023/03/19 21:13:58;;;;;;;53.08;24.30;;;;;;;3.82;65.72;101243.93;1766384;81;21189;-61
2023/03/19 21:17:04;;;;;;;39.98;21.40;;;;;;;3.80;65.85;101246.75;1766427;80;21336;-60
2023/03/19 21:20:11;;;;;;;40.10;19.62;;;;;;;3.81;65.93;101246.24;1766439;80;21237;-61
2023/03/19 21:23:41;;;;;;;24.98;13.48;;;;;;;3.80;65.97;101244.52;1766407;81;21247;-62
2023/03/19 21:26:47;;;;;;;28.05;15.10;;;;;;;3.73;65.86;101238.69;1766410;80;21272;-61
2023/03/19 21:29:54;;;;;;;19.10;12.15;;;;;;;3.67;65.88;101244.55;1766555;81;21316;-62
2023/03/19 21:33:02;;;;;;;16.82;10.90;;;;;;;3.60;65.80;101241.89;1766502;81;21248;-62
2023/03/19 21:36:12;;;;;;;19.42;9.93;;;;;;;3.52;65.78;101252.41;1766454;80;21374;-60
2023/03/19 21:39:13;;;;;;;20.52;10.70;;;;;;;3.44;65.72;101258.02;1766490;81;21224;-62
2023/03/19 21:42:08;;;;;;;24.65;10.68;;;;;;;3.34;65.78;101256.45;1766630;80;21355;-62
2023/03/19 21:45:32;;;;;;;19.92;10.88;;;;;;;3.33;65.93;101257.40;1766519;80;21198;-61
2023/03/19 21:48:40;;;;;;;21.95;10.53;;;;;;;3.33;65.98;101252.50;1766724;81;21201;-61
2023/03/19 21:51:45;;;;;;;19.70;10.72;;;;;;;3.28;66.02;101243.84;1766542;80;21197;-60
2023/03/19 21:54:52;;;;;;;24.55;10.93;;;;;;;3.30;66.10;101242.73;1749181;81;21756;-60
2023/03/19 21:58:03;;;;;;;22.32;10.23;;;;;;;3.26;66.17;101242.59;1765598;81;21193;-60
2023/03/19 22:01:10;;;;;;;20.08;10.45;;;;;;;3.26;66.24;101239.89;1766501;80;21221;-60
2023/03/19 22:04:17;;;;;;;16.17;10.48;;;;;;;3.25;66.24;101234.59;1766286;80;21220;-61
2023/03/19 22:07:24;;;;;;;15.95;10.45;;;;;;;3.27;66.48;101240.77;1766493;80;21284;-62
2023/03/19 22:10:34;;;;;;;20.15;11.30;;;;;;;3.34;66.71;101238.86;1766325;80;21252;-61
2023/03/19 22:13:42;;;;;;;25.65;13.05;;;;;;;3.41;66.75;101242.84;1766368;80;21181;-61
2023/03/19 22:16:50;;;;;;;23.62;12.23;;;;;;;3.45;66.81;101241.66;1749186;81;21338;-62
2023/03/19 22:19:57;;;;;;;20.82;11.33;;;;;;;3.47;66.81;101230.25;1749028;80;21228;-61
2023/03/19 22:23:05;;;;;;;22.02;11.25;;;;;;;3.51;66.83;101230.87;1766117;80;21286;-60
2023/03/19 22:26:15;;;;;;;25.00;13.18;;;;;;;3.52;66.88;101230.76;1766333;80;21209;-61
2023/03/19 22:29:26;;;;;;;20.68;13.35;;;;;;;3.56;66.88;101228.22;1766195;80;21228;-61
2023/03/19 22:32:33;;;;;;;23.05;11.15;;;;;;;3.55;66.78;101230.53;1766393;80;21260;-60
2023/03/19 22:35:41;;;;;;;23.83;11.18;;;;;;;3.53;66.76;101220.33;1766302;80;21201;-61
2023/03/19 22:38:48;;;;;;;21.30;11.55;;;;;;;3.48;66.72;101218.44;1766355;80;21256;-60
2023/03/19 22:41:55;;;;;;;20.00;11.40;;;;;;;3.49;66.81;101215.25;1766313;80;21224;-60
2023/03/19 22:45:00;;;;;;;19.87;11.25;;;;;;;3.52;66.93;101214.52;1766011;80;21272;-61
2023/03/19 22:48:07;;;;;;;21.12;12.78;;;;;;;3.47;66.78;101209.08;1766375;80;21192;-62
2023/03/19 22:51:13;;;;;;;20.72;12.68;;;;;;;3.45;66.85;101215.95;1766564;80;21201;-60
2023/03/19 22:54:20;;;;;;;20.68;12.20;;;;;;;3.41;66.78;101209.02;1766442;80;21182;-61
2023/03/19 22:57:26;;;;;;;18.37;12.90;;;;;;;3.33;66.74;101205.98;1766452;80;21193;-61
2023/03/19 23:00:32;;;;;;;24.85;13.48;;;;;;;3.32;66.84;101207.45;1766467;80;21196;-61
2023/03/19 23:03:40;;;;;;;22.95;12.03;;;;;;;3.29;66.91;101200.44;1767075;80;21193;-60
2023/03/19 23:06:49;;;;;;;21.75;11.40;;;;;;;3.26;66.86;101202.01;1766088;80;21205;-60
2023/03/19 23:09:55;;;;;;;29.82;12.50;;;;;;;3.17;66.78;101206.73;1766140;80;21205;-61
2023/03/19 23:13:02;;;;;;;20.90;10.78;;;;;;;3.17;66.94;101198.62;1766379;80;21162;-61
2023/03/19 23:16:08;;;;;;;23.05;12.33;;;;;;;3.19;67.09;101198.00;1767094;80;21221;-60
2023/03/19 23:19:32;;;;;;;22.95;11.73;;;;;;;3.22;67.24;101186.95;1766456;80;21173;-60
2023/03/19 23:22:41;;;;;;;22.05;12.03;;;;;;;3.23;67.27;101180.59;1761611;81;21217;-60
2023/03/19 23:25:47;;;;;;;22.25;10.28;;;;;;;3.21;67.17;101179.83;1766165;80;21166;-61
2023/03/19 23:28:53;;;;;;;21.65;10.23;;;;;;;3.13;67.05;101178.63;1766120;81;21252;-60
2023/03/19 23:31:59;;;;;;;17.87;10.43;;;;;;;3.07;67.12;101179.95;1750186;81;21232;-60
2023/03/19 23:35:06;;;;;;;16.57;9.23;;;;;;;3.06;67.22;101179.55;1766427;80;21189;-62
2023/03/19 23:38:12;;;;;;;18.48;9.88;;;;;;;3.03;67.24;101179.30;1766147;81;21228;-61
2023/03/19 23:41:28;;;;;;;20.32;10.35;;;;;;;3.02;67.32;101174.00;1766447;80;21271;-61
2023/03/19 23:44:36;;;;;;;17.23;10.15;;;;;;;3.05;67.41;101181.89;1766297;81;21243;-61
2023/03/19 23:47:44;;;;;;;16.87;10.35;;;;;;;3.06;67.51;101175.49;1766235;81;21201;-61
2023/03/19 23:50:50;;;;;;;20.08;11.10;;;;;;;3.03;67.41;101173.89;1766236;80;21221;-60
2023/03/19 23:53:58;;;;;;;23.85;11.40;;;;;;;2.94;67.21;101175.02;1766217;81;21264;-61
2023/03/19 23:57:05;;;;;;;21.50;10.88;;;;;;;2.83;67.18;101170.38;1766208;80;21193;-61
